< < Back
Terminal Aerodrome Forecast


Current Version              Previous Versions:   1  2  3  4  5  6  7  8  9  

Terminal Aerodrome Forecast

559
FTUS44 KBMX 161100 RRA
TAFANB
TAF
KANB 161139Z 1612/1712 VRB03KT 1/2SM FG VV002
     FM161330 VRB03KT 3SM BR OVC003
     FM161500 30005KT P6SM SCT015 BKN150
      TEMPO 1620/1623 6SM -TSRA BR OVC040CB
     FM170100 33003KT P6SM SCT250=

Latest METAR

525
SAUS70 KWBC 152100 RRX
MTRANB
METAR KANB 162053Z AUTO 17003KT 10SM FEW035 SCT046 29/22 A3000 RMK AO2
SLP148 T02890217 58025


USA.gov is the U.S. government's official web portal to all federal, state and local government web resources and services.